createdAt,value
2022-10-16T00:01:47.949Z,100090.72
2022-10-16T00:04:15.826Z,100085.50
2022-10-16T00:06:43.614Z,100090.75
2022-10-16T00:09:11.368Z,100087.25
2022-10-16T00:11:41.779Z,100091.59
2022-10-16T00:14:15.094Z,100092.47
2022-10-16T00:16:43.261Z,100099.38
2022-10-16T00:19:14.045Z,100090.72
2022-10-16T00:21:42.618Z,100094.22
2022-10-16T00:24:11.758Z,100094.16
2022-10-16T00:26:41.161Z,100085.47
2022-10-16T00:29:09.968Z,100088.09
2022-10-16T00:31:38.160Z,100088.09
2022-10-16T00:34:06.044Z,100095.91
2022-10-16T00:36:35.288Z,100100.22
2022-10-16T00:39:03.443Z,100095.94
2022-10-16T00:41:32.677Z,100100.31
2022-10-16T00:44:03.198Z,100099.47
2022-10-16T00:46:39.571Z,100090.78
2022-10-16T00:49:11.912Z,100095.97
2022-10-16T00:51:45.711Z,100101.16
2022-10-16T00:54:19.447Z,100099.38
2022-10-16T00:56:48.581Z,100087.19
2022-10-16T00:59:21.262Z,100087.22
2022-10-16T01:01:49.497Z,100094.16
2022-10-16T01:04:18.028Z,100090.69
2022-10-16T01:07:05.985Z,100087.09
2022-10-16T01:09:48.144Z,100093.19
2022-10-16T01:12:23.973Z,100096.66
2022-10-16T01:14:59.676Z,100093.16
2022-10-16T01:17:40.817Z,100096.66
2022-10-16T01:20:20.732Z,100099.25
2022-10-16T01:23:08.648Z,100102.69
2022-10-16T01:26:06.533Z,100096.56
2022-10-16T01:28:46.974Z,100093.97
2022-10-16T01:31:20.680Z,100100.91
2022-10-16T01:34:01.632Z,100100.03
2022-10-16T01:36:39.832Z,100106.13
2022-10-16T01:39:12.718Z,100098.31
2022-10-16T01:41:48.833Z,100087.88
2022-10-16T01:44:23.704Z,100088.78
2022-10-16T01:46:55.018Z,100087.00
2022-10-16T01:49:30.619Z,100092.19
2022-10-16T01:54:39.844Z,100085.34
2022-10-16T01:57:10.153Z,100090.50
2022-10-16T01:59:47.856Z,100101.78
2022-10-16T02:02:21.355Z,100095.72
2022-10-16T02:04:58.600Z,100100.88
2022-10-16T02:07:26.777Z,100092.19
2022-10-16T02:09:55.909Z,100099.13
2022-10-16T02:12:29.066Z,100107.75
2022-10-16T02:14:58.596Z,100104.25
2022-10-16T02:17:26.876Z,100099.88
2022-10-16T02:19:57.864Z,100099.03
2022-10-16T02:22:30.825Z,100093.78
2022-10-16T02:25:05.877Z,100095.53
2022-10-16T02:27:42.583Z,100099.03
2022-10-16T02:30:20.462Z,100104.22
2022-10-16T02:32:51.425Z,100104.25
2022-10-16T02:35:23.826Z,100105.09
2022-10-16T02:37:54.529Z,100105.94
2022-10-16T02:40:25.279Z,100099.06
2022-10-16T02:42:55.724Z,100103.41
2022-10-16T02:45:25.266Z,100109.44
2022-10-16T02:47:53.335Z,100109.47
2022-10-16T02:50:21.799Z,100113.84
2022-10-16T02:52:49.894Z,100112.97
2022-10-16T02:55:18.054Z,100113.84
2022-10-16T02:57:45.942Z,100113.00
2022-10-16T03:00:16.692Z,100119.97
2022-10-16T03:02:45.822Z,100125.31
2022-10-16T03:05:14.955Z,100118.44
2022-10-16T03:07:43.512Z,100112.28
2022-10-16T03:10:11.580Z,100112.31
2022-10-16T03:12:39.328Z,100101.97
2022-10-16T03:15:08.739Z,100100.28
2022-10-16T03:17:36.741Z,100107.16
2022-10-16T03:20:07.555Z,100110.59
2022-10-16T03:22:35.343Z,100109.72
2022-10-16T03:25:03.975Z,100114.91
2022-10-16T03:27:32.237Z,100115.81
2022-10-16T03:30:00.193Z,100121.03
2022-10-16T03:32:29.853Z,100121.94
2022-10-16T03:34:57.985Z,100126.22
2022-10-16T03:37:27.618Z,100111.47
2022-10-16T03:39:55.875Z,100120.19
2022-10-16T03:42:23.686Z,100116.75
2022-10-16T03:44:51.425Z,100121.84
2022-10-16T03:47:22.581Z,100114.91
2022-10-16T03:49:50.806Z,100111.38
2022-10-16T03:54:53.268Z,100107.84
2022-10-16T03:57:21.635Z,100111.31
2022-10-16T03:59:49.476Z,100113.03
2022-10-16T04:02:17.802Z,100119.13
2022-10-16T04:04:45.538Z,100120.06
2022-10-16T04:07:13.337Z,100121.84
2022-10-16T04:09:41.216Z,100130.50
2022-10-16T04:12:10.299Z,100130.47
2022-10-16T04:14:38.248Z,100132.13
2022-10-16T04:17:05.993Z,100132.03
2022-10-16T04:19:33.916Z,100138.13
2022-10-16T04:22:01.777Z,100145.06
2022-10-16T04:24:29.491Z,100144.22
2022-10-16T04:26:57.494Z,100144.19
2022-10-16T04:29:27.648Z,100126.84
2022-10-16T04:31:55.652Z,100131.19
2022-10-16T04:34:23.695Z,100142.50
2022-10-16T04:36:51.509Z,100135.53
2022-10-16T04:39:19.402Z,100144.19
2022-10-16T04:41:47.313Z,100150.28
2022-10-16T04:44:15.396Z,100143.38
2022-10-16T04:46:45.367Z,100151.19
2022-10-16T04:49:13.181Z,100152.06
2022-10-16T04:51:40.957Z,100149.50
2022-10-16T04:54:10.068Z,100153.84
2022-10-16T04:56:44.031Z,100149.56
2022-10-16T04:59:11.792Z,100156.47
2022-10-16T05:01:39.780Z,100161.69
2022-10-16T05:04:09.514Z,100163.50
2022-10-16T05:06:39.418Z,100165.28
2022-10-16T05:09:07.986Z,100167.00
2022-10-16T05:11:36.196Z,100167.06
2022-10-16T05:14:05.730Z,100157.53
2022-10-16T05:16:33.612Z,100163.59
2022-10-16T05:19:26.187Z,100164.50
2022-10-16T05:21:50.792Z,100168.84
2022-10-16T05:24:18.559Z,100170.50
2022-10-16T05:26:46.595Z,100179.09
2022-10-16T05:29:14.529Z,100185.19
2022-10-16T05:31:42.334Z,100187.84
2022-10-16T05:34:10.152Z,100191.34
2022-10-16T05:36:38.042Z,100191.31
2022-10-16T05:39:07.149Z,100203.44
2022-10-16T05:41:34.928Z,100200.81
2022-10-16T05:44:06.782Z,100214.69
2022-10-16T05:46:34.724Z,100210.28
2022-10-16T05:49:02.747Z,100214.59
2022-10-16T05:51:30.682Z,100210.28
2022-10-16T05:53:58.449Z,100214.63
2022-10-16T05:56:27.690Z,100222.34
2022-10-16T05:58:55.584Z,100220.50
2022-10-16T06:01:25.084Z,100225.59
2022-10-16T06:03:53.749Z,100228.28
2022-10-16T06:06:24.988Z,100234.34
2022-10-16T06:08:55.322Z,100237.75
2022-10-16T06:11:29.349Z,100237.75
2022-10-16T06:13:59.615Z,100244.72
2022-10-16T06:16:28.109Z,100243.88
2022-10-16T06:18:56.906Z,100240.38
2022-10-16T06:21:26.936Z,100244.81
2022-10-16T06:23:56.120Z,100255.19
2022-10-16T06:26:26.717Z,100260.41
2022-10-16T06:29:00.658Z,100262.28
2022-10-16T06:31:31.695Z,100263.97
2022-10-16T06:34:00.159Z,100269.22
2022-10-16T06:36:28.576Z,100268.34
2022-10-16T06:38:56.561Z,100276.25
2022-10-16T06:41:24.713Z,100275.38
2022-10-16T06:43:53.231Z,100284.97
2022-10-16T06:46:25.001Z,100279.81
2022-10-16T06:48:53.888Z,100286.75
2022-10-16T06:51:25.026Z,100297.16
2022-10-16T06:54:04.697Z,100299.81
2022-10-16T06:56:34.456Z,100305.09
2022-10-16T06:59:04.119Z,100304.22
2022-10-16T07:01:34.890Z,100317.25
2022-10-16T07:04:03.152Z,100311.22
2022-10-16T07:06:34.411Z,100319.13
2022-10-16T07:09:07.045Z,100322.63
2022-10-16T07:11:37.687Z,100326.94
2022-10-16T07:14:06.337Z,100333.88
2022-10-16T07:16:35.441Z,100343.47
2022-10-16T07:19:03.863Z,100347.78
2022-10-16T07:21:37.475Z,100358.22
2022-10-16T07:24:08.521Z,100368.66
2022-10-16T07:26:39.965Z,100370.41
2022-10-16T07:29:08.435Z,100375.75
2022-10-16T07:31:38.839Z,100381.94
2022-10-16T07:34:07.252Z,100386.34
2022-10-16T07:36:35.494Z,100392.50
2022-10-16T07:39:04.278Z,100396.09
2022-10-16T07:41:33.761Z,100398.81
2022-10-16T07:44:01.572Z,100395.34
2022-10-16T07:46:29.834Z,100404.13
2022-10-16T07:48:58.959Z,100409.44
2022-10-16T07:51:28.015Z,100414.69
2022-10-16T07:53:55.830Z,100418.28
2022-10-16T07:56:24.676Z,100418.38
2022-10-16T07:58:53.515Z,100420.19
2022-10-16T08:01:21.640Z,100406.38
2022-10-16T08:03:51.645Z,100413.38
2022-10-16T08:06:26.706Z,100407.31
2022-10-16T08:08:57.164Z,100411.72
2022-10-16T08:11:25.856Z,100420.44
2022-10-16T08:13:53.729Z,100413.50
2022-10-16T08:16:22.628Z,100422.25
2022-10-16T08:18:52.381Z,100429.25
2022-10-16T08:21:24.384Z,100430.16
2022-10-16T08:23:55.080Z,100418.84
2022-10-16T08:26:27.531Z,100424.09
2022-10-16T08:28:56.602Z,100429.38
2022-10-16T08:31:25.685Z,100427.66
2022-10-16T08:33:53.760Z,100422.41
2022-10-16T08:36:23.083Z,100436.38
2022-10-16T08:38:51.552Z,100444.25
2022-10-16T08:41:40.869Z,100431.16
2022-10-16T08:44:41.985Z,100448.59
2022-10-16T08:47:20.565Z,100448.59
2022-10-16T08:50:00.810Z,100443.34
2022-10-16T08:52:36.395Z,100445.09
2022-10-16T08:55:05.702Z,100452.09
2022-10-16T08:57:33.775Z,100461.66
2022-10-16T09:00:14.394Z,100466.03
2022-10-16T09:02:53.854Z,100467.75
2022-10-16T09:05:39.450Z,100471.28
2022-10-16T09:08:17.958Z,100473.00
2022-10-16T09:10:58.235Z,100473.00
2022-10-16T09:13:36.286Z,100476.47
2022-10-16T09:16:19.472Z,100480.84
2022-10-16T09:18:57.993Z,100483.44
2022-10-16T09:21:31.437Z,100473.00
2022-10-16T09:24:15.264Z,100476.44
2022-10-16T09:26:43.673Z,100492.16
2022-10-16T09:29:14.894Z,100495.66
2022-10-16T09:31:44.196Z,100496.50
2022-10-16T09:34:28.479Z,100502.59
2022-10-16T09:36:59.704Z,100504.31
2022-10-16T09:39:28.797Z,100506.91
2022-10-16T09:41:57.637Z,100511.19
2022-10-16T09:44:30.955Z,100515.47
2022-10-16T09:47:03.992Z,100514.72
2022-10-16T09:49:33.023Z,100517.38
2022-10-16T09:52:07.492Z,100530.34
2022-10-16T09:54:36.559Z,100530.25
2022-10-16T09:57:13.448Z,100526.59
2022-10-16T09:59:48.630Z,100519.41
2022-10-16T10:02:19.532Z,100525.41
2022-10-16T10:04:52.827Z,100525.22
2022-10-16T10:07:27.635Z,100523.38
2022-10-16T10:09:58.691Z,100521.75
2022-10-16T10:12:29.998Z,100513.91
2022-10-16T10:15:07.188Z,100515.13
2022-10-16T10:17:52.016Z,100524.50
2022-10-16T10:20:28.393Z,100521.38
2022-10-16T10:22:57.356Z,100522.63
2022-10-16T10:25:53.291Z,100527.50
2022-10-16T10:28:45.683Z,100530.81
2022-10-16T10:31:24.282Z,100532.47
2022-10-16T10:34:06.254Z,100535.97
2022-10-16T10:36:39.694Z,100532.94
2022-10-16T10:42:22.983Z,100538.47
2022-10-16T10:45:15.392Z,100542.38
2022-10-16T10:48:00.469Z,100527.22
2022-10-16T10:50:44.157Z,100528.50
2022-10-16T10:53:37.359Z,100531.16
2022-10-16T10:56:31.855Z,100538.44
2022-10-16T10:59:47.267Z,100533.97
2022-10-16T11:02:27.624Z,100533.66
2022-10-16T11:05:30.708Z,100532.00
2022-10-16T11:08:03.109Z,100533.34
2022-10-16T11:10:46.075Z,100546.75
2022-10-16T11:13:32.461Z,100550.19
2022-10-16T11:16:17.568Z,100546.44
2022-10-16T11:18:57.820Z,100555.19
2022-10-16T11:21:31.282Z,100552.41
2022-10-16T11:24:10.110Z,100548.50
2022-10-16T11:26:44.000Z,100552.00
2022-10-16T11:29:24.362Z,100548.31
2022-10-16T11:32:05.803Z,100551.53
2022-10-16T11:34:45.747Z,100554.38
2022-10-16T11:37:21.630Z,100550.88
2022-10-16T11:39:58.192Z,100557.22
2022-10-16T11:42:35.568Z,100564.75
2022-10-16T11:45:19.656Z,100564.63
2022-10-16T11:48:00.101Z,100563.75
2022-10-16T11:50:37.194Z,100570.03
2022-10-16T11:53:19.373Z,100574.44
2022-10-16T11:55:48.593Z,100580.81
2022-10-16T11:58:27.834Z,100573.41
2022-10-16T12:01:09.147Z,100572.44
2022-10-16T12:03:50.630Z,100574.00
2022-10-16T12:06:32.376Z,100583.63
2022-10-16T12:09:02.050Z,100573.84
2022-10-16T12:11:38.934Z,100578.13
2022-10-16T12:14:42.927Z,100591.09
2022-10-16T12:17:36.717Z,100585.03
2022-10-16T12:20:31.675Z,100584.88
2022-10-16T12:23:03.311Z,100592.72
2022-10-16T12:25:35.600Z,100581.28
2022-10-16T12:28:06.949Z,100594.72
2022-10-16T12:30:37.856Z,100602.63
2022-10-16T12:33:21.768Z,100599.38
2022-10-16T12:35:51.847Z,100602.38
2022-10-16T12:38:26.440Z,100611.47
2022-10-16T12:41:02.523Z,100600.97
2022-10-16T12:43:45.626Z,100610.78
2022-10-16T12:46:35.835Z,100617.31
2022-10-16T12:49:30.714Z,100615.59
2022-10-16T12:52:00.225Z,100616.25
2022-10-16T12:54:32.267Z,100611.84
2022-10-16T12:57:35.502Z,100619.03
2022-10-16T13:00:23.352Z,100619.34
2022-10-16T13:03:45.890Z,100623.88
2022-10-16T13:06:31.923Z,100628.38
2022-10-16T13:09:33.240Z,100614.72
2022-10-16T13:12:19.367Z,100627.09
2022-10-16T13:15:12.889Z,100630.59
2022-10-16T13:17:54.787Z,100631.28
2022-10-16T13:20:31.976Z,100623.56
2022-10-16T13:23:16.354Z,100621.34
2022-10-16T13:26:10.007Z,100624.41
2022-10-16T13:28:40.165Z,100629.63
2022-10-16T13:31:18.692Z,100624.41
2022-10-16T13:33:53.701Z,100632.63
2022-10-16T13:36:25.748Z,100627.25
2022-10-16T13:39:17.534Z,100629.47
2022-10-16T13:41:58.261Z,100624.53
2022-10-16T13:44:27.341Z,100625.69
2022-10-16T13:47:00.830Z,100634.47
2022-10-16T13:49:31.202Z,100637.31
2022-10-16T13:52:00.933Z,100644.34
2022-10-16T13:54:32.122Z,100645.03
2022-10-16T13:57:26.293Z,100644.19
2022-10-16T13:59:55.423Z,100636.56
2022-10-16T14:02:31.262Z,100641.63
2022-10-16T14:05:00.154Z,100625.44
2022-10-16T14:07:32.061Z,100629.06
2022-10-16T14:10:04.709Z,100637.00
2022-10-16T14:12:36.273Z,100636.72
2022-10-16T14:15:06.027Z,100640.41
2022-10-16T14:17:36.900Z,100654.22
2022-10-16T14:20:15.176Z,100652.09
2022-10-16T14:22:44.108Z,100652.25
2022-10-16T14:25:27.851Z,100649.22
2022-10-16T14:28:04.689Z,100652.72
2022-10-16T14:30:36.076Z,100652.19
2022-10-16T14:33:07.225Z,100644.31
2022-10-16T14:35:38.377Z,100656.50
2022-10-16T14:38:20.071Z,100651.66
2022-10-16T14:40:50.622Z,100656.16
2022-10-16T14:43:25.524Z,100650.28
2022-10-16T14:45:56.878Z,100653.03
2022-10-16T14:48:26.153Z,100649.81
2022-10-16T14:50:54.658Z,100652.75
2022-10-16T14:53:23.132Z,100652.50
2022-10-16T14:55:51.631Z,100672.06
2022-10-16T14:58:24.570Z,100666.22
2022-10-16T15:00:52.382Z,100670.69
2022-10-16T15:03:20.527Z,100669.00
2022-10-16T15:05:49.379Z,100666.22
2022-10-16T15:08:17.431Z,100671.00
2022-10-16T15:10:45.600Z,100681.66
2022-10-16T15:13:15.035Z,100675.72
2022-10-16T15:15:47.279Z,100673.16
2022-10-16T15:18:17.796Z,100670.81
2022-10-16T15:20:45.763Z,100673.59
2022-10-16T15:23:16.859Z,100665.69
2022-10-16T15:25:47.144Z,100672.69
2022-10-16T15:28:17.050Z,100673.63
2022-10-16T15:30:55.866Z,100664.84
2022-10-16T15:33:37.043Z,100669.28
2022-10-16T15:36:10.258Z,100677.22
2022-10-16T15:38:38.937Z,100670.31
2022-10-16T15:41:07.641Z,100665.88
2022-10-16T15:43:35.504Z,100675.59
2022-10-16T15:46:11.877Z,100672.22
2022-10-16T15:48:40.032Z,100667.13
2022-10-16T15:51:12.609Z,100665.38
2022-10-16T15:53:40.559Z,100663.59
2022-10-16T15:56:11.823Z,100668.81
2022-10-16T15:58:41.125Z,100668.84
2022-10-16T16:01:14.835Z,100667.16
2022-10-16T16:03:43.116Z,100675.16
2022-10-16T16:06:14.154Z,100675.28
2022-10-16T16:08:42.141Z,100672.72
2022-10-16T16:11:16.545Z,100672.81
2022-10-16T16:13:53.326Z,100667.63
2022-10-16T16:16:28.886Z,100669.41
2022-10-16T16:18:57.055Z,100682.69
2022-10-16T16:21:25.676Z,100673.13
2022-10-16T16:23:53.573Z,100688.97
2022-10-16T16:26:28.388Z,100676.72
2022-10-16T16:28:57.630Z,100682.91
2022-10-16T16:31:42.199Z,100670.59
2022-10-16T16:34:10.390Z,100680.22
2022-10-16T16:36:38.443Z,100682.06
2022-10-16T16:39:07.156Z,100684.75
2022-10-16T16:41:35.214Z,100690.94
2022-10-16T16:44:05.434Z,100687.47
2022-10-16T16:46:35.763Z,100690.22
2022-10-16T16:49:04.798Z,100702.47
2022-10-16T16:51:36.937Z,100698.09
2022-10-16T16:54:10.223Z,100705.06
2022-10-16T16:56:38.162Z,100717.34
2022-10-16T16:59:06.171Z,100718.22
2022-10-16T17:01:35.400Z,100727.81
2022-10-16T17:04:03.542Z,100731.28
2022-10-16T17:06:31.825Z,100733.94
2022-10-16T17:09:03.717Z,100734.84
2022-10-16T17:11:31.955Z,100734.84
2022-10-16T17:14:02.375Z,100729.56
2022-10-16T17:16:36.285Z,100732.22
2022-10-16T17:19:09.500Z,100730.50
2022-10-16T17:21:38.188Z,100731.38
2022-10-16T17:24:06.981Z,100718.25
2022-10-16T17:26:38.327Z,100724.38
2022-10-16T17:29:06.381Z,100733.16
2022-10-16T17:31:38.758Z,100724.38
2022-10-16T17:34:10.220Z,100734.94
2022-10-16T17:36:43.853Z,100735.81
2022-10-16T17:39:17.773Z,100745.47
2022-10-16T17:41:48.245Z,100758.56
2022-10-16T17:44:20.206Z,100761.16
2022-10-16T17:46:53.960Z,100755.91
2022-10-16T17:51:55.911Z,100776.91
2022-10-16T17:54:26.177Z,100781.28
2022-10-16T17:56:54.125Z,100766.41
2022-10-16T17:59:23.238Z,100773.44
2022-10-16T18:01:53.257Z,100771.66
2022-10-16T18:04:22.438Z,100764.69
2022-10-16T18:06:50.888Z,100755.91
2022-10-16T18:09:23.085Z,100756.81
2022-10-16T18:11:59.527Z,100755.06
2022-10-16T18:14:35.545Z,100761.19
2022-10-16T18:17:16.565Z,100763.78
2022-10-16T18:19:45.153Z,100759.41
2022-10-16T18:22:13.948Z,100759.44
2022-10-16T18:27:26.692Z,100754.16
2022-10-16T18:29:57.510Z,100752.41
2022-10-16T18:32:28.067Z,100749.72
2022-10-16T18:34:56.013Z,100755.00
2022-10-16T18:37:24.229Z,100757.63
2022-10-16T18:39:54.111Z,100761.13
2022-10-16T18:42:24.046Z,100749.78
2022-10-16T18:44:52.760Z,100761.13
2022-10-16T18:50:11.141Z,100756.75
2022-10-16T18:52:48.681Z,100754.09
2022-10-16T18:55:17.416Z,100751.41
2022-10-16T18:57:47.289Z,100747.03
2022-10-16T19:00:16.977Z,100748.78
2022-10-16T19:02:45.910Z,100752.28
2022-10-16T19:05:17.661Z,100748.75
2022-10-16T19:07:47.583Z,100751.38
2022-10-16T19:10:45.323Z,100748.84
2022-10-16T19:13:15.592Z,100748.81
2022-10-16T19:15:53.194Z,100755.84
2022-10-16T19:18:27.664Z,100764.56
2022-10-16T19:21:02.525Z,100770.63
2022-10-16T19:23:32.177Z,100772.41
2022-10-16T19:26:03.150Z,100770.66
2022-10-16T19:28:31.697Z,100773.31
2022-10-16T19:31:02.804Z,100772.44
2022-10-16T19:33:34.649Z,100775.06
2022-10-16T19:36:13.326Z,100773.31
2022-10-16T19:38:42.789Z,100776.78
2022-10-16T19:41:15.107Z,100776.78
2022-10-16T19:43:44.546Z,100776.78
2022-10-16T19:46:15.386Z,100776.72
2022-10-16T19:48:44.494Z,100774.94
2022-10-16T19:51:20.228Z,100794.16
2022-10-16T19:53:48.609Z,100806.41
2022-10-16T19:56:22.848Z,100820.47
2022-10-16T19:58:54.112Z,100841.41
2022-10-16T20:01:25.732Z,100853.63
2022-10-16T20:03:55.445Z,100862.44
2022-10-16T20:06:28.465Z,100866.81
2022-10-16T20:08:58.279Z,100871.13
2022-10-16T20:11:31.054Z,100868.53
2022-10-16T20:14:00.962Z,100860.69
2022-10-16T20:16:31.176Z,100865.91
2022-10-16T20:19:01.273Z,100861.56
2022-10-16T20:21:33.977Z,100854.53
2022-10-16T20:24:06.956Z,100836.13
2022-10-16T20:26:37.180Z,100845.63
2022-10-16T20:29:06.444Z,100847.34
2022-10-16T20:31:40.394Z,100844.69
2022-10-16T20:34:11.343Z,100851.47
2022-10-16T20:36:43.330Z,100852.38
2022-10-16T20:39:13.833Z,100853.19
2022-10-16T20:41:42.012Z,100851.38
2022-10-16T20:44:09.967Z,100851.31
2022-10-16T20:46:38.074Z,100854.66
2022-10-16T20:49:11.618Z,100852.88
2022-10-16T20:51:51.010Z,100858.91
2022-10-16T20:54:19.057Z,100862.28
2022-10-16T20:56:48.141Z,100856.16
2022-10-16T20:59:16.874Z,100844.03
2022-10-16T21:01:44.907Z,100852.53
2022-10-16T21:04:13.109Z,100845.50
2022-10-16T21:06:41.065Z,100841.13
2022-10-16T21:09:11.096Z,100841.97
2022-10-16T21:11:40.706Z,100845.53
2022-10-16T21:14:09.483Z,100849.06
2022-10-16T21:16:37.987Z,100843.00
2022-10-16T21:19:06.650Z,100840.38
2022-10-16T21:21:38.195Z,100840.47
2022-10-16T21:24:12.022Z,100836.16
2022-10-16T21:26:44.616Z,100840.47
2022-10-16T21:29:15.325Z,100826.53
2022-10-16T21:31:43.298Z,100822.13
2022-10-16T21:34:12.218Z,100818.59
2022-10-16T21:36:44.468Z,100821.03
2022-10-16T21:39:16.624Z,100819.22
2022-10-16T21:41:49.306Z,100810.53
2022-10-16T21:44:20.999Z,100816.66
2022-10-16T21:46:51.004Z,100821.06
2022-10-16T21:49:19.626Z,100825.19
2022-10-16T21:51:50.718Z,100823.53
2022-10-16T21:54:21.252Z,100820.94
2022-10-16T21:56:54.624Z,100806.94
2022-10-16T21:59:22.866Z,100804.31
2022-10-16T22:01:54.100Z,100797.38
2022-10-16T22:04:22.703Z,100799.91
2022-10-16T22:06:51.757Z,100800.81
2022-10-16T22:09:20.042Z,100800.78
2022-10-16T22:11:47.953Z,100798.22
2022-10-16T22:14:20.681Z,100792.91
2022-10-16T22:16:50.510Z,100786.66
2022-10-16T22:19:21.849Z,100792.75
2022-10-16T22:21:54.338Z,100784.97
2022-10-16T22:24:22.500Z,100783.31
2022-10-16T22:26:50.767Z,100785.81
2022-10-16T22:29:20.206Z,100790.91
2022-10-16T22:31:52.248Z,100792.56
2022-10-16T22:34:20.759Z,100789.03
2022-10-16T22:36:50.769Z,100788.19
2022-10-16T22:39:18.972Z,100790.84
2022-10-16T22:41:46.811Z,100796.06
2022-10-16T22:44:14.951Z,100800.56
2022-10-16T22:46:44.314Z,100803.16
2022-10-16T22:49:12.444Z,100798.88
2022-10-16T22:51:40.401Z,100801.50
2022-10-16T22:54:08.278Z,100793.72
2022-10-16T22:56:36.257Z,100791.97
2022-10-16T22:59:04.416Z,100794.56
2022-10-16T23:01:37.071Z,100791.84
2022-10-16T23:04:07.052Z,100790.91
2022-10-16T23:06:35.511Z,100797.84
2022-10-16T23:09:05.254Z,100800.56
2022-10-16T23:11:34.429Z,100796.19
2022-10-16T23:14:02.445Z,100793.56
2022-10-16T23:16:30.272Z,100790.88
2022-10-16T23:18:58.600Z,100795.97
2022-10-16T23:21:29.685Z,100795.00
2022-10-16T23:23:59.083Z,100795.78
2022-10-16T23:26:27.983Z,100795.78
2022-10-16T23:28:57.467Z,100797.50
2022-10-16T23:31:26.910Z,100795.72
2022-10-16T23:33:56.131Z,100794.88
2022-10-16T23:36:24.476Z,100794.03
2022-10-16T23:38:53.997Z,100794.91
2022-10-16T23:41:22.653Z,100786.16
2022-10-16T23:43:51.348Z,100795.81
2022-10-16T23:46:19.642Z,100800.16
2022-10-16T23:48:47.668Z,100800.03
2022-10-16T23:51:16.092Z,100793.97
2022-10-16T23:53:44.066Z,100802.69
2022-10-16T23:56:14.497Z,100794.00
2022-10-16T23:58:42.665Z,100808.91
